HKJKFMMI

Guest
Details From HKJK - Nairobi Jomo Kanyatta Intl
To FMMI - Ivato
Flight Number -
Tags Generated
Created
Modified
Stats Distance 1,219 nm / 2,258 km
Max Altitude 0 ft / 0 m
Waypoints 4
Social Downloads 2
Likes 0
Share VATSIM

Download

Looking for another format? Having issues loading an existing format? Contact us
Advertisement - Login to hide

Notes

Generated

Route

HKJK KARTA IA FMMI

ID Type Via Altitude Latitude Longitude Leg Dist Tot Dist Heading (true) Name
O HKJK APT - 0 ft / 0 m -1.32774˚ 36.91612˚ - 0 nm - -
KARTA FIX - 0 ft / 0 m -12.00760˚ 43.17980˚ 742 nm 742 nm 150° / 149° -
IA NDB - 0 ft / 0 m -18.79336˚ 47.45492˚ 476 nm 1218 nm 149° / 148° ANTANANARIVO IVATO NDB
O FMMI APT - 0 ft / 0 m -18.79479˚ 47.46427˚ 0 nm 1219 nm 99° / 99° -

Altitude Profile

Advertisement - Login to hide

Weather


0- 5 10 15 20 25 30 35+ Temperature / ° C

Clouds and Precipitation
Forecast for 2017-12-11 18:00 UTC. Updated 38 minutes ago

Ground ~20,000 ft ~40,000 ft Winds

HKJK

Details ICAO HKJK (NBO)
Name Nairobi Jomo Kanyatta Intl
Region Kenya
Timezone Africa/Nairobi (UTC+3.0)
Stats Elevation 5,330 ft / 1,625 m (AMSL)
Location -1.317073° 36.930757°
Runways 1
Magnetic Variation 0.575° E

METAR

HKJK 111330Z 06011KT 9999 FEW028 23/13 Q1019

Decode

TAF

TAF HKJK 111100Z 1112/1218 05010KT 9999 -SHRA FEW028 SCT240 BECMG 1120/1123 36005KT CAVOK BECMG 1208/1211 05010KT 9999 FEW027 TEMPO 1212/1218 FEW028 SCT240

Decode

Departure Runways

ID Width Length Bearing (true) Bearing (mag) Surface Threshold Offset Overrun Length
06 148 ft / 45 m 13,215 ft / 4,028 m 53.90° 53.32° Asphalt 0 ft / 0 m 194 ft / 59 m
24 148 ft / 45 m 13,215 ft / 4,028 m 233.90° 233.32° Asphalt 0 ft / 0 m 197 ft / 60 m

FMMI

Details ICAO FMMI (TNR)
Name IVATO
Region Comoros, Mayotte, Réunion and Madagascar
Timezone Indian/Antananarivo (UTC+3.0)
Stats Elevation 4,198 ft / 1,280 m (AMSL)
Location -18.796950° 47.478806°
Runways 1
Magnetic Variation 15.160° W

METAR

FMMI 111330Z 26005KT 220V300 9999 SCT020CB 25/20 Q1017 TEMPO TS

Decode

TAF

TAF FMMI 111100Z 1112/1218 32008KT 9999 SCT017 BKN020 TEMPO 1112/1120 4000 TSRA BKN015CB SCT020 PROB40 TEMPO 1120/1206 4000 SHRA PROB30 TEMPO 1212/1218 4000 TSRA BKN015CB SCT020

Decode

Destination Runways

ID Width Length Bearing (true) Bearing (mag) Surface Threshold Offset Overrun Length
11 148 ft / 45 m 10,167 ft / 3,099 m 98.92° 114.08° Asphalt 0 ft / 0 m 90 ft / 27 m
29 148 ft / 45 m 10,167 ft / 3,099 m 278.91° 294.07° Asphalt 0 ft / 0 m 90 ft / 27 m

Approach Navaids

Runway Type Ident Frequency Range Bearing (true) Bearing (mag) Slope Elevation
11 Localiser IO 109.50 MHz 18 nm / 33 km 98.89° 114.05° - 4,125 ft / 1,257 m (AMSL)
11 Glidescope IO 109.50 MHz 10 nm / 19 km 98.91° 114.07° 3.00° 4,198 ft / 1,280 m (AMSL)

Popular Alternatives